<?xml version="1.0" encoding="UTF-8" standalone="no" ?>
<gpx xmlns="http://www.topografix.com/GPX/1/1" xmlns:xsi="http://www.w3.org/2001/XMLSchema-instance" xsi:schemaLocation="http://www.topografix.com/GPX/1/1 http://www.topografix.com/GPX/1/1/gpx.xsd" version="1.1" creator="VisuGPX - https://www.visugpx.com">
  <metadata>
    <name>VTT Sud Bourgogne</name>
    <desc><![CDATA[Cluny - Tournus : circuits VTT XC]]></desc>
  </metadata>
  <trk>
    <name><![CDATA[1_la saone rive gauche - Vert]]></name>
    <extensions>
      <line xmlns="http://www.topografix.com/GPX/gpx_style/0/2">
        <color>11ff00</color>
        <width>4</width>
      </line>
    </extensions>
    <trkseg>
      <trkpt lat="46.55826" lon="4.93171">
        <ele>192</ele>
        <time>2020-09-22T10:18:42Z</time>
      </trkpt>
      <trkpt lat="46.55827" lon="4.93166">
        <ele>192</ele>
        <time>2020-09-22T10:18:43Z</time>
      </trkpt>
      <trkpt lat="46.55828" lon="4.93162">
        <ele>192</ele>
        <time>2020-09-22T10:18:44Z</time>
      </trkpt>
      <trkpt lat="46.55829" lon="4.93159">
        <ele>192</ele>
        <time>2020-09-22T10:18:44Z</time>
      </trkpt>
      <trkpt lat="46.55832" lon="4.93157">
        <ele>192</ele>
        <time>2020-09-22T10:18:45Z</time>
      </trkpt>
      <trkpt lat="46.55833" lon="4.93156">
        <ele>192</ele>
        <time>2020-09-22T10:18:45Z</time>
      </trkpt>
      <trkpt lat="46.55838" lon="4.93156">
        <ele>192</ele>
        <time>2020-09-22T10:18:46Z</time>
      </trkpt>
      <trkpt lat="46.55858" lon="4.93166">
        <ele>193</ele>
        <time>2020-09-22T10:18:51Z</time>
      </trkpt>
      <trkpt lat="46.55866" lon="4.93168">
        <ele>193</ele>
        <time>2020-09-22T10:18:53Z</time>
      </trkpt>
      <trkpt lat="46.55869" lon="4.93167">
        <ele>193</ele>
        <time>2020-09-22T10:18:54Z</time>
      </trkpt>
      <trkpt lat="46.55882" lon="4.93165">
        <ele>193</ele>
        <time>2020-09-22T10:18:57Z</time>
      </trkpt>
      <trkpt lat="46.55906" lon="4.93156">
        <ele>194</ele>
        <time>2020-09-22T10:19:03Z</time>
      </trkpt>
      <trkpt lat="46.55924" lon="4.93146">
        <ele>193</ele>
        <time>2020-09-22T10:19:07Z</time>
      </trkpt>
      <trkpt lat="46.55935" lon="4.93138">
        <ele>192</ele>
        <time>2020-09-22T10:19:10Z</time>
      </trkpt>
      <trkpt lat="46.55946" lon="4.93128">
        <ele>191</ele>
        <time>2020-09-22T10:19:13Z</time>
      </trkpt>
      <trkpt lat="46.55957" lon="4.93113">
        <ele>190</ele>
        <time>2020-09-22T10:19:17Z</time>
      </trkpt>
      <trkpt lat="46.5598" lon="4.9308">
        <ele>187</ele>
        <time>2020-09-22T10:19:24Z</time>
      </trkpt>
      <trkpt lat="46.55988" lon="4.93072">
        <ele>186</ele>
        <time>2020-09-22T10:19:26Z</time>
      </trkpt>
      <trkpt lat="46.55999" lon="4.93065">
        <ele>184</ele>
        <time>2020-09-22T10:19:29Z</time>
      </trkpt>
      <trkpt lat="46.56011" lon="4.9306">
        <ele>183</ele>
        <time>2020-09-22T10:19:32Z</time>
      </trkpt>
      <trkpt lat="46.56019" lon="4.93053">
        <ele>182</ele>
        <time>2020-09-22T10:19:34Z</time>
      </trkpt>
      <trkpt lat="46.56023" lon="4.93048">
        <ele>182</ele>
        <time>2020-09-22T10:19:36Z</time>
      </trkpt>
      <trkpt lat="46.56024" lon="4.93041">
        <ele>182</ele>
        <time>2020-09-22T10:19:37Z</time>
      </trkpt>
      <trkpt lat="46.56024" lon="4.93031">
        <ele>181</ele>
        <time>2020-09-22T10:19:38Z</time>
      </trkpt>
      <trkpt lat="46.56021" lon="4.93012">
        <ele>180</ele>
        <time>2020-09-22T10:19:41Z</time>
      </trkpt>
      <trkpt lat="46.5602" lon="4.93">
        <ele>180</ele>
        <time>2020-09-22T10:19:43Z</time>
      </trkpt>
      <trkpt lat="46.5602" lon="4.92991">
        <ele>179</ele>
        <time>2020-09-22T10:19:45Z</time>
      </trkpt>
      <trkpt lat="46.56022" lon="4.92982">
        <ele>179</ele>
        <time>2020-09-22T10:19:46Z</time>
      </trkpt>
      <trkpt lat="46.56025" lon="4.92972">
        <ele>179</ele>
        <time>2020-09-22T10:19:48Z</time>
      </trkpt>
      <trkpt lat="46.56037" lon="4.92947">
        <ele>177</ele>
        <time>2020-09-22T10:19:53Z</time>
      </trkpt>
      <trkpt lat="46.5605" lon="4.92925">
        <ele>176</ele>
        <time>2020-09-22T10:19:58Z</time>
      </trkpt>
      <trkpt lat="46.56058" lon="4.92906">
        <ele>175</ele>
        <time>2020-09-22T10:20:01Z</time>
      </trkpt>
      <trkpt lat="46.56047" lon="4.92894">
        <ele>176</ele>
        <time>2020-09-22T10:20:04Z</time>
      </trkpt>
      <trkpt lat="46.56039" lon="4.9288">
        <ele>176</ele>
        <time>2020-09-22T10:20:07Z</time>
      </trkpt>
      <trkpt lat="46.56042" lon="4.92879">
        <ele>176</ele>
        <time>2020-09-22T10:20:08Z</time>
      </trkpt>
      <trkpt lat="46.56048" lon="4.92873">
        <ele>175</ele>
        <time>2020-09-22T10:20:10Z</time>
      </trkpt>
      <trkpt lat="46.56054" lon="4.92866">
        <ele>175</ele>
        <time>2020-09-22T10:20:12Z</time>
      </trkpt>
      <trkpt lat="46.56061" lon="4.92849">
        <ele>174</ele>
        <time>2020-09-22T10:20:15Z</time>
      </trkpt>
      <trkpt lat="46.56082" lon="4.92775">
        <ele>173</ele>
        <time>2020-09-22T10:20:28Z</time>
      </trkpt>
      <trkpt lat="46.56088" lon="4.92753">
        <ele>173</ele>
        <time>2020-09-22T10:20:31Z</time>
      </trkpt>
      <trkpt lat="46.56096" lon="4.92755">
        <ele>172</ele>
        <time>2020-09-22T10:20:33Z</time>
      </trkpt>
      <trkpt lat="46.56104" lon="4.92754">
        <ele>172</ele>
        <time>2020-09-22T10:20:35Z</time>
      </trkpt>
      <trkpt lat="46.56115" lon="4.92748">
        <ele>171</ele>
        <time>2020-09-22T10:20:38Z</time>
      </trkpt>
      <trkpt lat="46.56125" lon="4.9274">
        <ele>171</ele>
        <time>2020-09-22T10:20:41Z</time>
      </trkpt>
      <trkpt lat="46.56141" lon="4.92722">
        <ele>170</ele>
        <time>2020-09-22T10:20:45Z</time>
      </trkpt>
      <trkpt lat="46.56158" lon="4.92697">
        <ele>170</ele>
        <time>2020-09-22T10:20:51Z</time>
      </trkpt>
      <trkpt lat="46.56182" lon="4.92656">
        <ele>170</ele>
        <time>2020-09-22T10:21:00Z</time>
      </trkpt>
      <trkpt lat="46.56213" lon="4.92609">
        <ele>171</ele>
        <time>2020-09-22T10:21:10Z</time>
      </trkpt>
      <trkpt lat="46.56228" lon="4.92581">
        <ele>172</ele>
        <time>2020-09-22T10:21:16Z</time>
      </trkpt>
      <trkpt lat="46.56245" lon="4.92549">
        <ele>172</ele>
        <time>2020-09-22T10:21:22Z</time>
      </trkpt>
      <trkpt lat="46.5627" lon="4.92507">
        <ele>171</ele>
        <time>2020-09-22T10:21:31Z</time>
      </trkpt>
      <trkpt lat="46.563" lon="4.92451">
        <ele>170</ele>
        <time>2020-09-22T10:21:43Z</time>
      </trkpt>
      <trkpt lat="46.56323" lon="4.92412">
        <ele>170</ele>
        <time>2020-09-22T10:21:51Z</time>
      </trkpt>
      <trkpt lat="46.56344" lon="4.92377">
        <ele>171</ele>
        <time>2020-09-22T10:21:58Z</time>
      </trkpt>
      <trkpt lat="46.56353" lon="4.92365">
        <ele>171</ele>
        <time>2020-09-22T10:22:01Z</time>
      </trkpt>
      <trkpt lat="46.56357" lon="4.92361">
        <ele>171</ele>
        <time>2020-09-22T10:22:02Z</time>
      </trkpt>
      <trkpt lat="46.56361" lon="4.92358">
        <ele>171</ele>
        <time>2020-09-22T10:22:03Z</time>
      </trkpt>
      <trkpt lat="46.56369" lon="4.92356">
        <ele>171</ele>
        <time>2020-09-22T10:22:05Z</time>
      </trkpt>
      <trkpt lat="46.5638" lon="4.92354">
        <ele>171</ele>
        <time>2020-09-22T10:22:08Z</time>
      </trkpt>
      <trkpt lat="46.56397" lon="4.92353">
        <ele>172</ele>
        <time>2020-09-22T10:22:12Z</time>
      </trkpt>
      <trkpt lat="46.56415" lon="4.92349">
        <ele>172</ele>
        <time>2020-09-22T10:22:16Z</time>
      </trkpt>
      <trkpt lat="46.56479" lon="4.92329">
        <ele>172</ele>
        <time>2020-09-22T10:22:31Z</time>
      </trkpt>
      <trkpt lat="46.56535" lon="4.92307">
        <ele>172</ele>
        <time>2020-09-22T10:22:45Z</time>
      </trkpt>
      <trkpt lat="46.56541" lon="4.92308">
        <ele>172</ele>
        <time>2020-09-22T10:22:46Z</time>
      </trkpt>
      <trkpt lat="46.56655" lon="4.92274">
        <ele>172</ele>
        <time>2020-09-22T10:23:13Z</time>
      </trkpt>
      <trkpt lat="46.56965" lon="4.92171">
        <ele>170</ele>
        <time>2020-09-22T10:24:28Z</time>
      </trkpt>
      <trkpt lat="46.57056" lon="4.9214">
        <ele>170</ele>
        <time>2020-09-22T10:24:50Z</time>
      </trkpt>
      <trkpt lat="46.57093" lon="4.9213">
        <ele>170</ele>
        <time>2020-09-22T10:24:58Z</time>
      </trkpt>
      <trkpt lat="46.57128" lon="4.92125">
        <ele>171</ele>
        <time>2020-09-22T10:25:07Z</time>
      </trkpt>
      <trkpt lat="46.57196" lon="4.92116">
        <ele>172</ele>
        <time>2020-09-22T10:25:22Z</time>
      </trkpt>
      <trkpt lat="46.57264" lon="4.92109">
        <ele>172</ele>
        <time>2020-09-22T10:25:38Z</time>
      </trkpt>
      <trkpt lat="46.57289" lon="4.92109">
        <ele>171</ele>
        <time>2020-09-22T10:25:44Z</time>
      </trkpt>
      <trkpt lat="46.5738" lon="4.92135">
        <ele>170</ele>
        <time>2020-09-22T10:26:06Z</time>
      </trkpt>
      <trkpt lat="46.57412" lon="4.92144">
        <ele>170</ele>
        <time>2020-09-22T10:26:13Z</time>
      </trkpt>
      <trkpt lat="46.5747" lon="4.92159">
        <ele>172</ele>
        <time>2020-09-22T10:26:27Z</time>
      </trkpt>
      <trkpt lat="46.57528" lon="4.92175">
        <ele>174</ele>
        <time>2020-09-22T10:26:41Z</time>
      </trkpt>
      <trkpt lat="46.57576" lon="4.92186">
        <ele>174</ele>
        <time>2020-09-22T10:26:52Z</time>
      </trkpt>
      <trkpt lat="46.5764" lon="4.92199">
        <ele>174</ele>
        <time>2020-09-22T10:27:07Z</time>
      </trkpt>
      <trkpt lat="46.57653" lon="4.922">
        <ele>174</ele>
        <time>2020-09-22T10:27:11Z</time>
      </trkpt>
      <trkpt lat="46.5767" lon="4.922">
        <ele>175</ele>
        <time>2020-09-22T10:27:14Z</time>
      </trkpt>
      <trkpt lat="46.57686" lon="4.92197">
        <ele>175</ele>
        <time>2020-09-22T10:27:18Z</time>
      </trkpt>
      <trkpt lat="46.57731" lon="4.92194">
        <ele>174</ele>
        <time>2020-09-22T10:27:29Z</time>
      </trkpt>
      <trkpt lat="46.57746" lon="4.92191">
        <ele>174</ele>
        <time>2020-09-22T10:27:32Z</time>
      </trkpt>
      <trkpt lat="46.57675" lon="4.92147">
        <ele>174</ele>
        <time>2020-09-22T10:27:50Z</time>
      </trkpt>
      <trkpt lat="46.57647" lon="4.92131">
        <ele>174</ele>
        <time>2020-09-22T10:27:57Z</time>
      </trkpt>
      <trkpt lat="46.57605" lon="4.92102">
        <ele>173</ele>
        <time>2020-09-22T10:28:08Z</time>
      </trkpt>
      <trkpt lat="46.57585" lon="4.92081">
        <ele>172</ele>
        <time>2020-09-22T10:28:14Z</time>
      </trkpt>
      <trkpt lat="46.57564" lon="4.92052">
        <ele>172</ele>
        <time>2020-09-22T10:28:21Z</time>
      </trkpt>
      <trkpt lat="46.5755" lon="4.92031">
        <ele>172</ele>
        <time>2020-09-22T10:28:25Z</time>
      </trkpt>
      <trkpt lat="46.57511" lon="4.91953">
        <ele>171</ele>
        <time>2020-09-22T10:28:41Z</time>
      </trkpt>
      <trkpt lat="46.57494" lon="4.91922">
        <ele>171</ele>
        <time>2020-09-22T10:28:47Z</time>
      </trkpt>
      <trkpt lat="46.57447" lon="4.91849">
        <ele>171</ele>
        <time>2020-09-22T10:29:03Z</time>
      </trkpt>
      <trkpt lat="46.57424" lon="4.91817">
        <ele>170</ele>
        <time>2020-09-22T10:29:11Z</time>
      </trkpt>
      <trkpt lat="46.5741" lon="4.91798">
        <ele>171</ele>
        <time>2020-09-22T10:29:15Z</time>
      </trkpt>
      <trkpt lat="46.574" lon="4.91788">
        <ele>171</ele>
        <time>2020-09-22T10:29:18Z</time>
      </trkpt>
      <trkpt lat="46.57392" lon="4.91779">
        <ele>171</ele>
        <time>2020-09-22T10:29:20Z</time>
      </trkpt>
      <trkpt lat="46.57383" lon="4.91773">
        <ele>171</ele>
        <time>2020-09-22T10:29:23Z</time>
      </trkpt>
      <trkpt lat="46.57365" lon="4.91761">
        <ele>172</ele>
        <time>2020-09-22T10:29:27Z</time>
      </trkpt>
      <trkpt lat="46.5734" lon="4.91751">
        <ele>172</ele>
        <time>2020-09-22T10:29:33Z</time>
      </trkpt>
      <trkpt lat="46.57319" lon="4.91743">
        <ele>172</ele>
        <time>2020-09-22T10:29:38Z</time>
      </trkpt>
      <trkpt lat="46.57325" lon="4.91722">
        <ele>172</ele>
        <time>2020-09-22T10:29:42Z</time>
      </trkpt>
      <trkpt lat="46.57327" lon="4.91712">
        <ele>172</ele>
        <time>2020-09-22T10:29:44Z</time>
      </trkpt>
      <trkpt lat="46.57329" lon="4.91692">
        <ele>172</ele>
        <time>2020-09-22T10:29:47Z</time>
      </trkpt>
      <trkpt lat="46.57331" lon="4.9166">
        <ele>172</ele>
        <time>2020-09-22T10:29:52Z</time>
      </trkpt>
      <trkpt lat="46.57336" lon="4.9163">
        <ele>172</ele>
        <time>2020-09-22T10:29:57Z</time>
      </trkpt>
      <trkpt lat="46.57337" lon="4.91622">
        <ele>171</ele>
        <time>2020-09-22T10:29:58Z</time>
      </trkpt>
      <trkpt lat="46.57337" lon="4.91612">
        <ele>171</ele>
        <time>2020-09-22T10:30:00Z</time>
      </trkpt>
      <trkpt lat="46.57336" lon="4.91604">
        <ele>171</ele>
        <time>2020-09-22T10:30:01Z</time>
      </trkpt>
      <trkpt lat="46.57331" lon="4.916">
        <ele>171</ele>
        <time>2020-09-22T10:30:03Z</time>
      </trkpt>
      <trkpt lat="46.57324" lon="4.91592">
        <ele>171</ele>
        <time>2020-09-22T10:30:05Z</time>
      </trkpt>
      <trkpt lat="46.57319" lon="4.91589">
        <ele>171</ele>
        <time>2020-09-22T10:30:06Z</time>
      </trkpt>
      <trkpt lat="46.57313" lon="4.91585">
        <ele>171</ele>
        <time>2020-09-22T10:30:08Z</time>
      </trkpt>
      <trkpt lat="46.57298" lon="4.91589">
        <ele>171</ele>
        <time>2020-09-22T10:30:11Z</time>
      </trkpt>
      <trkpt lat="46.57271" lon="4.9159">
        <ele>171</ele>
        <time>2020-09-22T10:30:17Z</time>
      </trkpt>
      <trkpt lat="46.57265" lon="4.9159">
        <ele>171</ele>
        <time>2020-09-22T10:30:19Z</time>
      </trkpt>
      <trkpt lat="46.57253" lon="4.91585">
        <ele>171</ele>
        <time>2020-09-22T10:30:22Z</time>
      </trkpt>
      <trkpt lat="46.57229" lon="4.91572">
        <ele>171</ele>
        <time>2020-09-22T10:30:28Z</time>
      </trkpt>
      <trkpt lat="46.57199" lon="4.91559">
        <ele>171</ele>
        <time>2020-09-22T10:30:35Z</time>
      </trkpt>
      <trkpt lat="46.57181" lon="4.91551">
        <ele>171</ele>
        <time>2020-09-22T10:30:39Z</time>
      </trkpt>
      <trkpt lat="46.57001" lon="4.91461">
        <ele>171</ele>
        <time>2020-09-22T10:31:24Z</time>
      </trkpt>
      <trkpt lat="46.56953" lon="4.91439">
        <ele>171</ele>
        <time>2020-09-22T10:31:36Z</time>
      </trkpt>
      <trkpt lat="46.56896" lon="4.91415">
        <ele>171</ele>
        <time>2020-09-22T10:31:50Z</time>
      </trkpt>
      <trkpt lat="46.56845" lon="4.91392">
        <ele>171</ele>
        <time>2020-09-22T10:32:02Z</time>
      </trkpt>
      <trkpt lat="46.56799" lon="4.91374">
        <ele>172</ele>
        <time>2020-09-22T10:32:13Z</time>
      </trkpt>
      <trkpt lat="46.56763" lon="4.91359">
        <ele>172</ele>
        <time>2020-09-22T10:32:22Z</time>
      </trkpt>
      <trkpt lat="46.56719" lon="4.91342">
        <ele>174</ele>
        <time>2020-09-22T10:32:33Z</time>
      </trkpt>
      <trkpt lat="46.56693" lon="4.91336">
        <ele>174</ele>
        <time>2020-09-22T10:32:39Z</time>
      </trkpt>
      <trkpt lat="46.56668" lon="4.91332">
        <ele>175</ele>
        <time>2020-09-22T10:32:45Z</time>
      </trkpt>
      <trkpt lat="46.56654" lon="4.91332">
        <ele>174</ele>
        <time>2020-09-22T10:32:48Z</time>
      </trkpt>
      <trkpt lat="46.56639" lon="4.91335">
        <ele>174</ele>
        <time>2020-09-22T10:32:51Z</time>
      </trkpt>
      <trkpt lat="46.56633" lon="4.91338">
        <ele>173</ele>
        <time>2020-09-22T10:32:53Z</time>
      </trkpt>
      <trkpt lat="46.56624" lon="4.91349">
        <ele>173</ele>
        <time>2020-09-22T10:32:56Z</time>
      </trkpt>
      <trkpt lat="46.56615" lon="4.91354">
        <ele>173</ele>
        <time>2020-09-22T10:32:58Z</time>
      </trkpt>
      <trkpt lat="46.56586" lon="4.91366">
        <ele>172</ele>
        <time>2020-09-22T10:33:05Z</time>
      </trkpt>
      <trkpt lat="46.56538" lon="4.91381">
        <ele>172</ele>
        <time>2020-09-22T10:33:16Z</time>
      </trkpt>
      <trkpt lat="46.56503" lon="4.91395">
        <ele>173</ele>
        <time>2020-09-22T10:33:25Z</time>
      </trkpt>
      <trkpt lat="46.56489" lon="4.91405">
        <ele>173</ele>
        <time>2020-09-22T10:33:28Z</time>
      </trkpt>
      <trkpt lat="46.56477" lon="4.91416">
        <ele>173</ele>
        <time>2020-09-22T10:33:32Z</time>
      </trkpt>
      <trkpt lat="46.56472" lon="4.91427">
        <ele>173</ele>
        <time>2020-09-22T10:33:34Z</time>
      </trkpt>
      <trkpt lat="46.5647" lon="4.91435">
        <ele>173</ele>
        <time>2020-09-22T10:33:35Z</time>
      </trkpt>
      <trkpt lat="46.56469" lon="4.91454">
        <ele>174</ele>
        <time>2020-09-22T10:33:38Z</time>
      </trkpt>
      <trkpt lat="46.56466" lon="4.9146">
        <ele>174</ele>
        <time>2020-09-22T10:33:39Z</time>
      </trkpt>
      <trkpt lat="46.56461" lon="4.91464">
        <ele>174</ele>
        <time>2020-09-22T10:33:41Z</time>
      </trkpt>
      <trkpt lat="46.56462" lon="4.91457">
        <ele>174</ele>
        <time>2020-09-22T10:33:42Z</time>
      </trkpt>
      <trkpt lat="46.56464" lon="4.91435">
        <ele>173</ele>
        <time>2020-09-22T10:33:46Z</time>
      </trkpt>
      <trkpt lat="46.56464" lon="4.91429">
        <ele>173</ele>
        <time>2020-09-22T10:33:46Z</time>
      </trkpt>
      <trkpt lat="46.5644" lon="4.91448">
        <ele>173</ele>
        <time>2020-09-22T10:33:53Z</time>
      </trkpt>
      <trkpt lat="46.56409" lon="4.91473">
        <ele>173</ele>
        <time>2020-09-22T10:34:01Z</time>
      </trkpt>
      <trkpt lat="46.56382" lon="4.91496">
        <ele>174</ele>
        <time>2020-09-22T10:34:08Z</time>
      </trkpt>
      <trkpt lat="46.56355" lon="4.9152">
        <ele>174</ele>
        <time>2020-09-22T10:34:16Z</time>
      </trkpt>
      <trkpt lat="46.56327" lon="4.91547">
        <ele>174</ele>
        <time>2020-09-22T10:34:24Z</time>
      </trkpt>
      <trkpt lat="46.56302" lon="4.91575">
        <ele>174</ele>
        <time>2020-09-22T10:34:31Z</time>
      </trkpt>
      <trkpt lat="46.56285" lon="4.91596">
        <ele>174</ele>
        <time>2020-09-22T10:34:36Z</time>
      </trkpt>
      <trkpt lat="46.5627" lon="4.91612">
        <ele>174</ele>
        <time>2020-09-22T10:34:41Z</time>
      </trkpt>
      <trkpt lat="46.56254" lon="4.91626">
        <ele>174</ele>
        <time>2020-09-22T10:34:45Z</time>
      </trkpt>
      <trkpt lat="46.5622" lon="4.91651">
        <ele>174</ele>
        <time>2020-09-22T10:34:54Z</time>
      </trkpt>
      <trkpt lat="46.56188" lon="4.91678">
        <ele>174</ele>
        <time>2020-09-22T10:35:03Z</time>
      </trkpt>
      <trkpt lat="46.56151" lon="4.91707">
        <ele>173</ele>
        <time>2020-09-22T10:35:12Z</time>
      </trkpt>
      <trkpt lat="46.56071" lon="4.91758">
        <ele>173</ele>
        <time>2020-09-22T10:35:33Z</time>
      </trkpt>
      <trkpt lat="46.56055" lon="4.91771">
        <ele>172</ele>
        <time>2020-09-22T10:35:37Z</time>
      </trkpt>
      <trkpt lat="46.56035" lon="4.91789">
        <ele>172</ele>
        <time>2020-09-22T10:35:43Z</time>
      </trkpt>
      <trkpt lat="46.56014" lon="4.91813">
        <ele>172</ele>
        <time>2020-09-22T10:35:49Z</time>
      </trkpt>
      <trkpt lat="46.55998" lon="4.9183">
        <ele>172</ele>
        <time>2020-09-22T10:35:53Z</time>
      </trkpt>
      <trkpt lat="46.55971" lon="4.91848">
        <ele>171</ele>
        <time>2020-09-22T10:36:00Z</time>
      </trkpt>
      <trkpt lat="46.55923" lon="4.91884">
        <ele>170</ele>
        <time>2020-09-22T10:36:13Z</time>
      </trkpt>
      <trkpt lat="46.55826" lon="4.91953">
        <ele>169</ele>
        <time>2020-09-22T10:36:38Z</time>
      </trkpt>
      <trkpt lat="46.55794" lon="4.91977">
        <ele>170</ele>
        <time>2020-09-22T10:36:47Z</time>
      </trkpt>
      <trkpt lat="46.55769" lon="4.91993">
        <ele>170</ele>
        <time>2020-09-22T10:36:53Z</time>
      </trkpt>
      <trkpt lat="46.55755" lon="4.92">
        <ele>170</ele>
        <time>2020-09-22T10:36:56Z</time>
      </trkpt>
      <trkpt lat="46.55741" lon="4.92005">
        <ele>170</ele>
        <time>2020-09-22T10:37:00Z</time>
      </trkpt>
      <trkpt lat="46.55725" lon="4.92016">
        <ele>170</ele>
        <time>2020-09-22T10:37:04Z</time>
      </trkpt>
      <trkpt lat="46.557" lon="4.92035">
        <ele>171</ele>
        <time>2020-09-22T10:37:10Z</time>
      </trkpt>
      <trkpt lat="46.55687" lon="4.92045">
        <ele>171</ele>
        <time>2020-09-22T10:37:14Z</time>
      </trkpt>
      <trkpt lat="46.55679" lon="4.92049">
        <ele>171</ele>
        <time>2020-09-22T10:37:16Z</time>
      </trkpt>
      <trkpt lat="46.5567" lon="4.9205">
        <ele>171</ele>
        <time>2020-09-22T10:37:18Z</time>
      </trkpt>
      <trkpt lat="46.55661" lon="4.92047">
        <ele>171</ele>
        <time>2020-09-22T10:37:20Z</time>
      </trkpt>
      <trkpt lat="46.55655" lon="4.92046">
        <ele>171</ele>
        <time>2020-09-22T10:37:22Z</time>
      </trkpt>
      <trkpt lat="46.55646" lon="4.92051">
        <ele>171</ele>
        <time>2020-09-22T10:37:24Z</time>
      </trkpt>
      <trkpt lat="46.55645" lon="4.92049">
        <ele>171</ele>
        <time>2020-09-22T10:37:24Z</time>
      </trkpt>
      <trkpt lat="46.55646" lon="4.92051">
        <ele>171</ele>
        <time>2020-09-22T10:37:25Z</time>
      </trkpt>
      <trkpt lat="46.55639" lon="4.92054">
        <ele>171</ele>
        <time>2020-09-22T10:37:26Z</time>
      </trkpt>
      <trkpt lat="46.55613" lon="4.92069">
        <ele>171</ele>
        <time>2020-09-22T10:37:33Z</time>
      </trkpt>
      <trkpt lat="46.55597" lon="4.92077">
        <ele>171</ele>
        <time>2020-09-22T10:37:37Z</time>
      </trkpt>
      <trkpt lat="46.55585" lon="4.92082">
        <ele>171</ele>
        <time>2020-09-22T10:37:40Z</time>
      </trkpt>
      <trkpt lat="46.55574" lon="4.92084">
        <ele>171</ele>
        <time>2020-09-22T10:37:42Z</time>
      </trkpt>
      <trkpt lat="46.55552" lon="4.92086">
        <ele>171</ele>
        <time>2020-09-22T10:37:47Z</time>
      </trkpt>
      <trkpt lat="46.55528" lon="4.9209">
        <ele>171</ele>
        <time>2020-09-22T10:37:53Z</time>
      </trkpt>
      <trkpt lat="46.55479" lon="4.92101">
        <ele>171</ele>
        <time>2020-09-22T10:38:05Z</time>
      </trkpt>
      <trkpt lat="46.55435" lon="4.92114">
        <ele>171</ele>
        <time>2020-09-22T10:38:15Z</time>
      </trkpt>
      <trkpt lat="46.55409" lon="4.92123">
        <ele>171</ele>
        <time>2020-09-22T10:38:21Z</time>
      </trkpt>
      <trkpt lat="46.55398" lon="4.92129">
        <ele>172</ele>
        <time>2020-09-22T10:38:24Z</time>
      </trkpt>
      <trkpt lat="46.55365" lon="4.92146">
        <ele>173</ele>
        <time>2020-09-22T10:38:32Z</time>
      </trkpt>
      <trkpt lat="46.55326" lon="4.92167">
        <ele>174</ele>
        <time>2020-09-22T10:38:42Z</time>
      </trkpt>
      <trkpt lat="46.55277" lon="4.92192">
        <ele>172</ele>
        <time>2020-09-22T10:38:54Z</time>
      </trkpt>
      <trkpt lat="46.55225" lon="4.92224">
        <ele>172</ele>
        <time>2020-09-22T10:39:07Z</time>
      </trkpt>
      <trkpt lat="46.55195" lon="4.92241">
        <ele>173</ele>
        <time>2020-09-22T10:39:15Z</time>
      </trkpt>
      <trkpt lat="46.55189" lon="4.92247">
        <ele>174</ele>
        <time>2020-09-22T10:39:17Z</time>
      </trkpt>
      <trkpt lat="46.55187" lon="4.92251">
        <ele>174</ele>
        <time>2020-09-22T10:39:17Z</time>
      </trkpt>
      <trkpt lat="46.55181" lon="4.92265">
        <ele>174</ele>
        <time>2020-09-22T10:39:20Z</time>
      </trkpt>
      <trkpt lat="46.55174" lon="4.92302">
        <ele>174</ele>
        <time>2020-09-22T10:39:26Z</time>
      </trkpt>
      <trkpt lat="46.55172" lon="4.92314">
        <ele>174</ele>
        <time>2020-09-22T10:39:28Z</time>
      </trkpt>
      <trkpt lat="46.5517" lon="4.92333">
        <ele>174</ele>
        <time>2020-09-22T10:39:31Z</time>
      </trkpt>
      <trkpt lat="46.55168" lon="4.92346">
        <ele>174</ele>
        <time>2020-09-22T10:39:33Z</time>
      </trkpt>
      <trkpt lat="46.55169" lon="4.92355">
        <ele>173</ele>
        <time>2020-09-22T10:39:35Z</time>
      </trkpt>
      <trkpt lat="46.55173" lon="4.92372">
        <ele>173</ele>
        <time>2020-09-22T10:39:38Z</time>
      </trkpt>
      <trkpt lat="46.55177" lon="4.92387">
        <ele>173</ele>
        <time>2020-09-22T10:39:40Z</time>
      </trkpt>
      <trkpt lat="46.55179" lon="4.92402">
        <ele>172</ele>
        <time>2020-09-22T10:39:43Z</time>
      </trkpt>
      <trkpt lat="46.55179" lon="4.92413">
        <ele>172</ele>
        <time>2020-09-22T10:39:45Z</time>
      </trkpt>
      <trkpt lat="46.55173" lon="4.92421">
        <ele>172</ele>
        <time>2020-09-22T10:39:46Z</time>
      </trkpt>
      <trkpt lat="46.55161" lon="4.92428">
        <ele>172</ele>
        <time>2020-09-22T10:39:49Z</time>
      </trkpt>
      <trkpt lat="46.55128" lon="4.92441">
        <ele>173</ele>
        <time>2020-09-22T10:39:57Z</time>
      </trkpt>
      <trkpt lat="46.55045" lon="4.92495">
        <ele>173</ele>
        <time>2020-09-22T10:40:19Z</time>
      </trkpt>
      <trkpt lat="46.55032" lon="4.92507">
        <ele>173</ele>
        <time>2020-09-22T10:40:22Z</time>
      </trkpt>
      <trkpt lat="46.55024" lon="4.92523">
        <ele>173</ele>
        <time>2020-09-22T10:40:25Z</time>
      </trkpt>
      <trkpt lat="46.55019" lon="4.92532">
        <ele>172</ele>
        <time>2020-09-22T10:40:27Z</time>
      </trkpt>
      <trkpt lat="46.55015" lon="4.92545">
        <ele>172</ele>
        <time>2020-09-22T10:40:30Z</time>
      </trkpt>
      <trkpt lat="46.5501" lon="4.92558">
        <ele>172</ele>
        <time>2020-09-22T10:40:32Z</time>
      </trkpt>
      <trkpt lat="46.55001" lon="4.92574">
        <ele>171</ele>
        <time>2020-09-22T10:40:35Z</time>
      </trkpt>
      <trkpt lat="46.54935" lon="4.9267">
        <ele>171</ele>
        <time>2020-09-22T10:40:57Z</time>
      </trkpt>
      <trkpt lat="46.54894" lon="4.9273">
        <ele>172</ele>
        <time>2020-09-22T10:41:11Z</time>
      </trkpt>
      <trkpt lat="46.54866" lon="4.92769">
        <ele>172</ele>
        <time>2020-09-22T10:41:20Z</time>
      </trkpt>
      <trkpt lat="46.54757" lon="4.92891">
        <ele>171</ele>
        <time>2020-09-22T10:41:52Z</time>
      </trkpt>
      <trkpt lat="46.54722" lon="4.92932">
        <ele>171</ele>
        <time>2020-09-22T10:42:02Z</time>
      </trkpt>
      <trkpt lat="46.54702" lon="4.9296">
        <ele>171</ele>
        <time>2020-09-22T10:42:09Z</time>
      </trkpt>
      <trkpt lat="46.54698" lon="4.92966">
        <ele>171</ele>
        <time>2020-09-22T10:42:10Z</time>
      </trkpt>
      <trkpt lat="46.54694" lon="4.92977">
        <ele>171</ele>
        <time>2020-09-22T10:42:12Z</time>
      </trkpt>
      <trkpt lat="46.54688" lon="4.92976">
        <ele>171</ele>
        <time>2020-09-22T10:42:14Z</time>
      </trkpt>
      <trkpt lat="46.5468" lon="4.92977">
        <ele>171</ele>
        <time>2020-09-22T10:42:15Z</time>
      </trkpt>
      <trkpt lat="46.54665" lon="4.92983">
        <ele>171</ele>
        <time>2020-09-22T10:42:19Z</time>
      </trkpt>
      <trkpt lat="46.54643" lon="4.92996">
        <ele>171</ele>
        <time>2020-09-22T10:42:25Z</time>
      </trkpt>
      <trkpt lat="46.5459" lon="4.93025">
        <ele>170</ele>
        <time>2020-09-22T10:42:38Z</time>
      </trkpt>
      <trkpt lat="46.54529" lon="4.93058">
        <ele>175</ele>
        <time>2020-09-22T10:42:53Z</time>
      </trkpt>
      <trkpt lat="46.54465" lon="4.93092">
        <ele>171</ele>
        <time>2020-09-22T10:43:09Z</time>
      </trkpt>
      <trkpt lat="46.54387" lon="4.93136">
        <ele>163</ele>
        <time>2020-09-22T10:43:29Z</time>
      </trkpt>
      <trkpt lat="46.54317" lon="4.93174">
        <ele>169</ele>
        <time>2020-09-22T10:43:46Z</time>
      </trkpt>
      <trkpt lat="46.54242" lon="4.93213">
        <ele>170</ele>
        <time>2020-09-22T10:44:05Z</time>
      </trkpt>
      <trkpt lat="46.54181" lon="4.93246">
        <ele>169</ele>
        <time>2020-09-22T10:44:20Z</time>
      </trkpt>
      <trkpt lat="46.54099" lon="4.93292">
        <ele>169</ele>
        <time>2020-09-22T10:44:40Z</time>
      </trkpt>
      <trkpt lat="46.54011" lon="4.93338">
        <ele>166</ele>
        <time>2020-09-22T10:45:02Z</time>
      </trkpt>
      <trkpt lat="46.53995" lon="4.9335">
        <ele>165</ele>
        <time>2020-09-22T10:45:06Z</time>
      </trkpt>
      <trkpt lat="46.54029" lon="4.93457">
        <ele>164</ele>
        <time>2020-09-22T10:45:25Z</time>
      </trkpt>
      <trkpt lat="46.54052" lon="4.93542">
        <ele>168</ele>
        <time>2020-09-22T10:45:40Z</time>
      </trkpt>
      <trkpt lat="46.54071" lon="4.93608">
        <ele>172</ele>
        <time>2020-09-22T10:45:51Z</time>
      </trkpt>
      <trkpt lat="46.54081" lon="4.9364">
        <ele>173</ele>
        <time>2020-09-22T10:45:57Z</time>
      </trkpt>
      <trkpt lat="46.54094" lon="4.93675">
        <ele>172</ele>
        <time>2020-09-22T10:46:03Z</time>
      </trkpt>
      <trkpt lat="46.54118" lon="4.93733">
        <ele>172</ele>
        <time>2020-09-22T10:46:14Z</time>
      </trkpt>
      <trkpt lat="46.54127" lon="4.93758">
        <ele>173</ele>
        <time>2020-09-22T10:46:19Z</time>
      </trkpt>
      <trkpt lat="46.54129" lon="4.93769">
        <ele>173</ele>
        <time>2020-09-22T10:46:21Z</time>
      </trkpt>
      <trkpt lat="46.5413" lon="4.93782">
        <ele>173</ele>
        <time>2020-09-22T10:46:23Z</time>
      </trkpt>
      <trkpt lat="46.5413" lon="4.9379">
        <ele>173</ele>
        <time>2020-09-22T10:46:24Z</time>
      </trkpt>
      <trkpt lat="46.54127" lon="4.93802">
        <ele>173</ele>
        <time>2020-09-22T10:46:26Z</time>
      </trkpt>
      <trkpt lat="46.54124" lon="4.93811">
        <ele>174</ele>
        <time>2020-09-22T10:46:28Z</time>
      </trkpt>
      <trkpt lat="46.54121" lon="4.93816">
        <ele>174</ele>
        <time>2020-09-22T10:46:29Z</time>
      </trkpt>
      <trkpt lat="46.54122" lon="4.93943">
        <ele>179</ele>
        <time>2020-09-22T10:46:49Z</time>
      </trkpt>
      <trkpt lat="46.54129" lon="4.93953">
        <ele>179</ele>
        <time>2020-09-22T10:46:51Z</time>
      </trkpt>
      <trkpt lat="46.54135" lon="4.93958">
        <ele>179</ele>
        <time>2020-09-22T10:46:53Z</time>
      </trkpt>
      <trkpt lat="46.54163" lon="4.93981">
        <ele>180</ele>
        <time>2020-09-22T10:47:01Z</time>
      </trkpt>
      <trkpt lat="46.54185" lon="4.93995">
        <ele>181</ele>
        <time>2020-09-22T10:47:06Z</time>
      </trkpt>
      <trkpt lat="46.54199" lon="4.94">
        <ele>181</ele>
        <time>2020-09-22T10:47:10Z</time>
      </trkpt>
      <trkpt lat="46.54209" lon="4.94">
        <ele>182</ele>
        <time>2020-09-22T10:47:12Z</time>
      </trkpt>
      <trkpt lat="46.54213" lon="4.93998">
        <ele>182</ele>
        <time>2020-09-22T10:47:13Z</time>
      </trkpt>
      <trkpt lat="46.5423" lon="4.93994">
        <ele>182</ele>
        <time>2020-09-22T10:47:17Z</time>
      </trkpt>
      <trkpt lat="46.54245" lon="4.93993">
        <ele>182</ele>
        <time>2020-09-22T10:47:20Z</time>
      </trkpt>
      <trkpt lat="46.54265" lon="4.93992">
        <ele>182</ele>
        <time>2020-09-22T10:47:25Z</time>
      </trkpt>
      <trkpt lat="46.54273" lon="4.93992">
        <ele>182</ele>
        <time>2020-09-22T10:47:27Z</time>
      </trkpt>
      <trkpt lat="46.54281" lon="4.93994">
        <ele>183</ele>
        <time>2020-09-22T10:47:29Z</time>
      </trkpt>
      <trkpt lat="46.54295" lon="4.94004">
        <ele>183</ele>
        <time>2020-09-22T10:47:33Z</time>
      </trkpt>
      <trkpt lat="46.543" lon="4.94011">
        <ele>183</ele>
        <time>2020-09-22T10:47:34Z</time>
      </trkpt>
      <trkpt lat="46.54302" lon="4.94017">
        <ele>183</ele>
        <time>2020-09-22T10:47:35Z</time>
      </trkpt>
      <trkpt lat="46.54307" lon="4.94026">
        <ele>184</ele>
        <time>2020-09-22T10:47:37Z</time>
      </trkpt>
      <trkpt lat="46.54318" lon="4.94042">
        <ele>184</ele>
        <time>2020-09-22T10:47:41Z</time>
      </trkpt>
      <trkpt lat="46.54325" lon="4.94055">
        <ele>184</ele>
        <time>2020-09-22T10:47:43Z</time>
      </trkpt>
      <trkpt lat="46.54345" lon="4.94055">
        <ele>185</ele>
        <time>2020-09-22T10:47:48Z</time>
      </trkpt>
      <trkpt lat="46.54377" lon="4.94053">
        <ele>186</ele>
        <time>2020-09-22T10:47:56Z</time>
      </trkpt>
      <trkpt lat="46.54411" lon="4.94049">
        <ele>186</ele>
        <time>2020-09-22T10:48:03Z</time>
      </trkpt>
      <trkpt lat="46.5445" lon="4.94043">
        <ele>188</ele>
        <time>2020-09-22T10:48:13Z</time>
      </trkpt>
      <trkpt lat="46.54459" lon="4.94041">
        <ele>188</ele>
        <time>2020-09-22T10:48:15Z</time>
      </trkpt>
      <trkpt lat="46.54475" lon="4.9404">
        <ele>189</ele>
        <time>2020-09-22T10:48:19Z</time>
      </trkpt>
      <trkpt lat="46.5448" lon="4.9404">
        <ele>189</ele>
        <time>2020-09-22T10:48:20Z</time>
      </trkpt>
      <trkpt lat="46.54508" lon="4.9404">
        <ele>190</ele>
        <time>2020-09-22T10:48:26Z</time>
      </trkpt>
      <trkpt lat="46.54531" lon="4.94038">
        <ele>191</ele>
        <time>2020-09-22T10:48:32Z</time>
      </trkpt>
      <trkpt lat="46.54568" lon="4.94033">
        <ele>193</ele>
        <time>2020-09-22T10:48:40Z</time>
      </trkpt>
      <trkpt lat="46.54598" lon="4.94029">
        <ele>195</ele>
        <time>2020-09-22T10:48:47Z</time>
      </trkpt>
      <trkpt lat="46.54624" lon="4.94022">
        <ele>197</ele>
        <time>2020-09-22T10:48:53Z</time>
      </trkpt>
      <trkpt lat="46.54637" lon="4.94017">
        <ele>198</ele>
        <time>2020-09-22T10:48:57Z</time>
      </trkpt>
      <trkpt lat="46.5466" lon="4.9401">
        <ele>199</ele>
        <time>2020-09-22T10:49:02Z</time>
      </trkpt>
      <trkpt lat="46.54691" lon="4.94003">
        <ele>201</ele>
        <time>2020-09-22T10:49:09Z</time>
      </trkpt>
      <trkpt lat="46.54721" lon="4.93996">
        <ele>202</ele>
        <time>2020-09-22T10:49:17Z</time>
      </trkpt>
      <trkpt lat="46.54737" lon="4.9399">
        <ele>202</ele>
        <time>2020-09-22T10:49:20Z</time>
      </trkpt>
      <trkpt lat="46.54753" lon="4.93983">
        <ele>202</ele>
        <time>2020-09-22T10:49:24Z</time>
      </trkpt>
      <trkpt lat="46.54777" lon="4.93973">
        <ele>202</ele>
        <time>2020-09-22T10:49:30Z</time>
      </trkpt>
      <trkpt lat="46.54824" lon="4.93957">
        <ele>202</ele>
        <time>2020-09-22T10:49:41Z</time>
      </trkpt>
      <trkpt lat="46.54845" lon="4.93954">
        <ele>203</ele>
        <time>2020-09-22T10:49:46Z</time>
      </trkpt>
      <trkpt lat="46.54839" lon="4.93906">
        <ele>202</ele>
        <time>2020-09-22T10:49:54Z</time>
      </trkpt>
      <trkpt lat="46.54838" lon="4.93883">
        <ele>202</ele>
        <time>2020-09-22T10:49:58Z</time>
      </trkpt>
      <trkpt lat="46.54846" lon="4.93866">
        <ele>202</ele>
        <time>2020-09-22T10:50:01Z</time>
      </trkpt>
      <trkpt lat="46.54866" lon="4.93846">
        <ele>203</ele>
        <time>2020-09-22T10:50:07Z</time>
      </trkpt>
      <trkpt lat="46.54889" lon="4.93836">
        <ele>203</ele>
        <time>2020-09-22T10:50:12Z</time>
      </trkpt>
      <trkpt lat="46.54913" lon="4.93825">
        <ele>204</ele>
        <time>2020-09-22T10:50:18Z</time>
      </trkpt>
      <trkpt lat="46.54929" lon="4.93827">
        <ele>204</ele>
        <time>2020-09-22T10:50:22Z</time>
      </trkpt>
      <trkpt lat="46.54952" lon="4.93844">
        <ele>204</ele>
        <time>2020-09-22T10:50:28Z</time>
      </trkpt>
      <trkpt lat="46.54977" lon="4.93852">
        <ele>203</ele>
        <time>2020-09-22T10:50:34Z</time>
      </trkpt>
      <trkpt lat="46.55005" lon="4.93866">
        <ele>203</ele>
        <time>2020-09-22T10:50:41Z</time>
      </trkpt>
      <trkpt lat="46.5503" lon="4.93874">
        <ele>204</ele>
        <time>2020-09-22T10:50:47Z</time>
      </trkpt>
      <trkpt lat="46.55043" lon="4.93884">
        <ele>204</ele>
        <time>2020-09-22T10:50:50Z</time>
      </trkpt>
      <trkpt lat="46.55067" lon="4.939">
        <ele>205</ele>
        <time>2020-09-22T10:50:57Z</time>
      </trkpt>
      <trkpt lat="46.55073" lon="4.93888">
        <ele>205</ele>
        <time>2020-09-22T10:50:59Z</time>
      </trkpt>
      <trkpt lat="46.55086" lon="4.93856">
        <ele>204</ele>
        <time>2020-09-22T10:51:05Z</time>
      </trkpt>
      <trkpt lat="46.55102" lon="4.93813">
        <ele>204</ele>
        <time>2020-09-22T10:51:13Z</time>
      </trkpt>
      <trkpt lat="46.55107" lon="4.93792">
        <ele>204</ele>
        <time>2020-09-22T10:51:16Z</time>
      </trkpt>
      <trkpt lat="46.5511" lon="4.93771">
        <ele>204</ele>
        <time>2020-09-22T10:51:20Z</time>
      </trkpt>
      <trkpt lat="46.55115" lon="4.93733">
        <ele>204</ele>
        <time>2020-09-22T10:51:26Z</time>
      </trkpt>
      <trkpt lat="46.5512" lon="4.93581">
        <ele>204</ele>
        <time>2020-09-22T10:51:50Z</time>
      </trkpt>
      <trkpt lat="46.55121" lon="4.93551">
        <ele>204</ele>
        <time>2020-09-22T10:51:55Z</time>
      </trkpt>
      <trkpt lat="46.5511" lon="4.93344">
        <ele>194</ele>
        <time>2020-09-22T10:52:29Z</time>
      </trkpt>
      <trkpt lat="46.55109" lon="4.93293">
        <ele>190</ele>
        <time>2020-09-22T10:52:37Z</time>
      </trkpt>
      <trkpt lat="46.55106" lon="4.93248">
        <ele>186</ele>
        <time>2020-09-22T10:52:44Z</time>
      </trkpt>
      <trkpt lat="46.55103" lon="4.93224">
        <ele>184</ele>
        <time>2020-09-22T10:52:48Z</time>
      </trkpt>
      <trkpt lat="46.55101" lon="4.93205">
        <ele>183</ele>
        <time>2020-09-22T10:52:51Z</time>
      </trkpt>
      <trkpt lat="46.55109" lon="4.93202">
        <ele>182</ele>
        <time>2020-09-22T10:52:53Z</time>
      </trkpt>
      <trkpt lat="46.55138" lon="4.93193">
        <ele>181</ele>
        <time>2020-09-22T10:53:00Z</time>
      </trkpt>
      <trkpt lat="46.55181" lon="4.93181">
        <ele>179</ele>
        <time>2020-09-22T10:53:10Z</time>
      </trkpt>
      <trkpt lat="46.55221" lon="4.93169">
        <ele>179</ele>
        <time>2020-09-22T10:53:20Z</time>
      </trkpt>
      <trkpt lat="46.55271" lon="4.93157">
        <ele>180</ele>
        <time>2020-09-22T10:53:32Z</time>
      </trkpt>
      <trkpt lat="46.55299" lon="4.9315">
        <ele>181</ele>
        <time>2020-09-22T10:53:38Z</time>
      </trkpt>
      <trkpt lat="46.55331" lon="4.93141">
        <ele>182</ele>
        <time>2020-09-22T10:53:46Z</time>
      </trkpt>
      <trkpt lat="46.55349" lon="4.93135">
        <ele>182</ele>
        <time>2020-09-22T10:53:50Z</time>
      </trkpt>
      <trkpt lat="46.55354" lon="4.93134">
        <ele>183</ele>
        <time>2020-09-22T10:53:51Z</time>
      </trkpt>
      <trkpt lat="46.55366" lon="4.93128">
        <ele>183</ele>
        <time>2020-09-22T10:53:54Z</time>
      </trkpt>
      <trkpt lat="46.55378" lon="4.93121">
        <ele>183</ele>
        <time>2020-09-22T10:53:57Z</time>
      </trkpt>
      <trkpt lat="46.55387" lon="4.93112">
        <ele>183</ele>
        <time>2020-09-22T10:54:00Z</time>
      </trkpt>
      <trkpt lat="46.55395" lon="4.9311">
        <ele>183</ele>
        <time>2020-09-22T10:54:02Z</time>
      </trkpt>
      <trkpt lat="46.55409" lon="4.93102">
        <ele>183</ele>
        <time>2020-09-22T10:54:05Z</time>
      </trkpt>
      <trkpt lat="46.55429" lon="4.93087">
        <ele>183</ele>
        <time>2020-09-22T10:54:10Z</time>
      </trkpt>
      <trkpt lat="46.55454" lon="4.93066">
        <ele>184</ele>
        <time>2020-09-22T10:54:17Z</time>
      </trkpt>
      <trkpt lat="46.55476" lon="4.9305">
        <ele>184</ele>
        <time>2020-09-22T10:54:23Z</time>
      </trkpt>
      <trkpt lat="46.55509" lon="4.93031">
        <ele>185</ele>
        <time>2020-09-22T10:54:31Z</time>
      </trkpt>
      <trkpt lat="46.55521" lon="4.93024">
        <ele>185</ele>
        <time>2020-09-22T10:54:34Z</time>
      </trkpt>
      <trkpt lat="46.55543" lon="4.93013">
        <ele>185</ele>
        <time>2020-09-22T10:54:40Z</time>
      </trkpt>
      <trkpt lat="46.55565" lon="4.93003">
        <ele>186</ele>
        <time>2020-09-22T10:54:45Z</time>
      </trkpt>
      <trkpt lat="46.55576" lon="4.93">
        <ele>186</ele>
        <time>2020-09-22T10:54:48Z</time>
      </trkpt>
      <trkpt lat="46.55579" lon="4.93">
        <ele>186</ele>
        <time>2020-09-22T10:54:48Z</time>
      </trkpt>
      <trkpt lat="46.55604" lon="4.92997">
        <ele>186</ele>
        <time>2020-09-22T10:54:54Z</time>
      </trkpt>
      <trkpt lat="46.55614" lon="4.92996">
        <ele>187</ele>
        <time>2020-09-22T10:54:57Z</time>
      </trkpt>
      <trkpt lat="46.55632" lon="4.92996">
        <ele>187</ele>
        <time>2020-09-22T10:55:01Z</time>
      </trkpt>
      <trkpt lat="46.55642" lon="4.92997">
        <ele>187</ele>
        <time>2020-09-22T10:55:03Z</time>
      </trkpt>
      <trkpt lat="46.55668" lon="4.93002">
        <ele>187</ele>
        <time>2020-09-22T10:55:09Z</time>
      </trkpt>
      <trkpt lat="46.55682" lon="4.93006">
        <ele>187</ele>
        <time>2020-09-22T10:55:13Z</time>
      </trkpt>
      <trkpt lat="46.55697" lon="4.93031">
        <ele>188</ele>
        <time>2020-09-22T10:55:18Z</time>
      </trkpt>
      <trkpt lat="46.5573" lon="4.93068">
        <ele>189</ele>
        <time>2020-09-22T10:55:28Z</time>
      </trkpt>
      <trkpt lat="46.55769" lon="4.93111">
        <ele>190</ele>
        <time>2020-09-22T10:55:39Z</time>
      </trkpt>
      <trkpt lat="46.55803" lon="4.93145">
        <ele>192</ele>
        <time>2020-09-22T10:55:49Z</time>
      </trkpt>
      <trkpt lat="46.55826" lon="4.93171">
        <ele>192</ele>
        <time>2020-09-22T10:55:55Z</time>
      </trkpt>
    </trkseg>
  </trk>
</gpx>